createdAt,value
2017-07-14T00:02:14.439Z,74.60
2017-07-14T00:04:42.758Z,75.00
2017-07-14T00:07:11.091Z,75.80
2017-07-14T00:09:39.398Z,75.90
2017-07-14T00:12:07.746Z,75.80
2017-07-14T00:14:36.055Z,75.50
2017-07-14T00:17:04.391Z,75.70
2017-07-14T00:19:32.704Z,75.30
2017-07-14T00:22:01.031Z,74.70
2017-07-14T00:24:29.351Z,74.80
2017-07-14T00:26:57.699Z,75.40
2017-07-14T00:32:25.632Z,75.30
2017-07-14T00:34:53.955Z,75.20
2017-07-14T00:37:22.271Z,75.10
2017-07-14T00:39:50.619Z,74.70
2017-07-14T00:42:18.934Z,75.00
2017-07-14T00:44:47.286Z,75.20
2017-07-14T00:47:15.618Z,75.50
2017-07-14T00:49:43.958Z,75.50
2017-07-14T00:52:12.294Z,76.50
2017-07-14T00:54:40.636Z,76.20
2017-07-14T00:57:08.947Z,76.50
2017-07-14T00:59:37.309Z,76.00
2017-07-14T01:02:05.649Z,75.50
2017-07-14T01:04:33.963Z,76.10
2017-07-14T01:07:02.305Z,76.60
2017-07-14T01:09:30.619Z,76.40
2017-07-14T01:11:58.962Z,76.30
2017-07-14T01:14:27.286Z,76.50
2017-07-14T01:16:55.625Z,76.80
2017-07-14T01:19:23.938Z,75.90
2017-07-14T01:21:52.286Z,76.20
2017-07-14T01:24:20.613Z,76.70
2017-07-14T01:26:48.965Z,76.60
2017-07-14T01:29:17.301Z,75.40
2017-07-14T01:31:45.653Z,76.20
2017-07-14T01:34:13.971Z,76.00
2017-07-14T01:36:42.299Z,76.70
2017-07-14T01:39:10.640Z,76.60
2017-07-14T01:41:38.974Z,76.30
2017-07-14T01:44:07.321Z,76.50
2017-07-14T01:46:35.663Z,77.60
2017-07-14T01:49:04.056Z,76.50
2017-07-14T01:51:32.394Z,76.70
2017-07-14T01:54:00.753Z,77.00
2017-07-14T01:56:29.070Z,76.90
2017-07-14T01:58:57.439Z,77.10
2017-07-14T02:01:25.784Z,77.70
2017-07-14T02:03:54.170Z,77.20
2017-07-14T02:06:22.550Z,76.80
2017-07-14T02:08:50.883Z,77.20
2017-07-14T02:11:20.151Z,76.80
2017-07-14T02:13:48.488Z,77.30
2017-07-14T02:16:16.847Z,77.40
2017-07-14T02:18:45.178Z,77.20
2017-07-14T02:21:13.534Z,78.00
2017-07-14T02:23:41.871Z,77.70
2017-07-14T02:26:10.225Z,76.70
2017-07-14T02:28:38.659Z,76.50
2017-07-14T02:31:07.033Z,76.60
2017-07-14T02:33:35.361Z,77.60
2017-07-14T02:36:03.798Z,77.60
2017-07-14T02:38:32.154Z,77.60
2017-07-14T02:41:00.485Z,76.90
2017-07-14T02:43:28.822Z,77.10
2017-07-14T02:45:57.147Z,76.10
2017-07-14T02:48:25.511Z,76.50
2017-07-14T02:50:53.829Z,76.60
2017-07-14T02:53:22.231Z,76.30
2017-07-14T02:55:50.544Z,76.70
2017-07-14T02:58:18.898Z,75.90
2017-07-14T03:00:47.217Z,76.10
2017-07-14T03:03:15.529Z,77.20
2017-07-14T03:05:43.877Z,76.80
2017-07-14T03:08:12.202Z,77.20
2017-07-14T03:10:40.551Z,76.80
2017-07-14T03:13:09.030Z,76.80
2017-07-14T03:15:37.378Z,76.60
2017-07-14T03:18:05.703Z,77.30
2017-07-14T03:20:34.041Z,76.60
2017-07-14T03:23:13.147Z,76.30
2017-07-14T03:25:41.495Z,76.00
2017-07-14T03:28:09.882Z,76.20
2017-07-14T03:30:38.225Z,76.40
2017-07-14T03:33:06.540Z,77.00
2017-07-14T03:35:34.893Z,78.00
2017-07-14T03:38:03.238Z,78.10
2017-07-14T03:40:31.582Z,78.00
2017-07-14T03:43:00.838Z,77.40
2017-07-14T03:45:29.156Z,76.70
2017-07-14T03:47:57.506Z,76.70
2017-07-14T03:50:25.834Z,77.40
2017-07-14T03:52:54.206Z,77.70
2017-07-14T03:55:22.541Z,77.80
2017-07-14T03:57:54.092Z,77.20
2017-07-14T04:00:22.450Z,76.70
2017-07-14T04:02:50.829Z,76.20
2017-07-14T04:05:19.142Z,77.90
2017-07-14T04:07:47.476Z,79.90
2017-07-14T04:10:15.795Z,79.40
2017-07-14T04:12:44.146Z,78.80
2017-07-14T04:15:12.469Z,78.80
2017-07-14T04:17:40.783Z,78.80
2017-07-14T04:20:09.113Z,78.40
2017-07-14T04:22:37.435Z,78.30
2017-07-14T04:25:05.772Z,77.80
2017-07-14T04:27:34.096Z,77.60
2017-07-14T04:30:02.433Z,77.80
2017-07-14T04:32:30.753Z,77.80
2017-07-14T04:34:59.094Z,77.90
2017-07-14T04:37:27.405Z,77.40
2017-07-14T04:39:55.734Z,77.10
2017-07-14T04:42:24.066Z,76.80
2017-07-14T04:44:52.408Z,77.50
2017-07-14T04:47:20.723Z,77.50
2017-07-14T04:49:49.042Z,77.20
2017-07-14T04:52:17.384Z,77.70
2017-07-14T04:54:45.697Z,77.50
2017-07-14T04:57:14.044Z,78.30
2017-07-14T04:59:42.357Z,78.80
2017-07-14T05:02:10.711Z,78.90
2017-07-14T05:04:39.021Z,81.90
2017-07-14T05:07:07.365Z,81.90
2017-07-14T05:09:35.682Z,80.50
2017-07-14T05:14:59.311Z,79.10
2017-07-14T05:17:27.657Z,78.60
2017-07-14T05:19:55.971Z,78.90
2017-07-14T05:22:24.281Z,78.20
2017-07-14T05:24:52.620Z,78.00
2017-07-14T05:27:20.940Z,78.40
2017-07-14T05:29:49.371Z,78.20
2017-07-14T05:32:17.682Z,77.20
2017-07-14T05:34:46.046Z,77.80
2017-07-14T05:37:14.363Z,78.30
2017-07-14T05:39:42.690Z,78.70
2017-07-14T05:42:11.009Z,78.70
2017-07-14T05:44:39.365Z,77.70
2017-07-14T05:47:07.686Z,78.50
2017-07-14T05:49:36.028Z,78.00
2017-07-14T05:52:04.338Z,76.80
2017-07-14T05:54:32.686Z,77.00
2017-07-14T05:57:00.999Z,76.60
2017-07-14T05:59:29.317Z,74.90
2017-07-14T06:01:57.652Z,74.10
2017-07-14T06:07:26.513Z,74.00
2017-07-14T06:09:54.813Z,73.70
2017-07-14T06:12:24.184Z,72.30
2017-07-14T06:14:52.561Z,72.40
2017-07-14T06:17:20.887Z,72.70
2017-07-14T06:19:49.339Z,71.60
2017-07-14T06:22:21.114Z,72.00
2017-07-14T06:24:49.446Z,71.10
2017-07-14T06:27:17.782Z,70.70
2017-07-14T06:29:46.080Z,70.90
2017-07-14T06:32:14.391Z,69.50
2017-07-14T06:34:42.722Z,70.00
2017-07-14T06:37:11.030Z,68.40
2017-07-14T06:39:39.355Z,66.90
2017-07-14T06:42:07.666Z,66.90
2017-07-14T06:44:36.001Z,66.00
2017-07-14T06:47:04.320Z,64.90
2017-07-14T06:49:32.657Z,62.90
2017-07-14T06:52:00.957Z,61.30
2017-07-14T06:54:29.298Z,60.30
2017-07-14T06:56:57.603Z,59.90
2017-07-14T06:59:25.905Z,60.60
2017-07-14T07:01:54.234Z,60.40
2017-07-14T07:04:22.558Z,60.40
2017-07-14T07:06:50.887Z,59.80
2017-07-14T07:09:19.227Z,59.10
2017-07-14T07:11:47.557Z,59.20
2017-07-14T07:14:15.865Z,59.60
2017-07-14T07:16:44.188Z,59.20
2017-07-14T07:19:12.493Z,59.70
2017-07-14T07:21:40.825Z,58.00
2017-07-14T07:24:09.361Z,58.10
2017-07-14T07:26:37.684Z,57.10
2017-07-14T07:29:06.013Z,56.80
2017-07-14T07:31:34.312Z,56.80
2017-07-14T07:34:02.629Z,58.10
2017-07-14T07:36:30.922Z,59.60
2017-07-14T07:38:59.251Z,59.10
2017-07-14T07:41:27.553Z,60.00
2017-07-14T07:43:55.881Z,59.70
2017-07-14T07:46:29.848Z,60.00
2017-07-14T07:49:03.709Z,59.80
2017-07-14T07:51:32.015Z,60.30
2017-07-14T07:54:00.349Z,59.40
2017-07-14T07:56:28.649Z,59.00
2017-07-14T07:58:56.963Z,58.60
2017-07-14T08:01:25.299Z,58.80
2017-07-14T08:03:53.638Z,58.40
2017-07-14T08:06:21.968Z,57.50
2017-07-14T08:08:50.278Z,59.00
2017-07-14T08:11:18.607Z,58.00
2017-07-14T08:13:46.915Z,58.20
2017-07-14T08:16:15.237Z,58.30
2017-07-14T08:18:44.461Z,57.00
2017-07-14T08:21:12.797Z,58.40
2017-07-14T08:23:41.103Z,54.70
2017-07-14T08:26:09.442Z,53.90
2017-07-14T08:28:37.758Z,53.80
2017-07-14T08:31:06.070Z,53.10
2017-07-14T08:33:34.390Z,53.80
2017-07-14T08:36:02.686Z,55.40
2017-07-14T08:38:31.014Z,55.20
2017-07-14T08:40:59.312Z,56.00
2017-07-14T08:43:27.649Z,55.20
2017-07-14T08:45:55.954Z,54.40
2017-07-14T08:48:24.288Z,55.20
2017-07-14T08:50:52.587Z,53.70
2017-07-14T08:53:20.922Z,51.80
2017-07-14T08:55:49.218Z,50.80
2017-07-14T08:58:17.554Z,52.70
2017-07-14T09:03:46.000Z,49.60
2017-07-14T09:06:14.304Z,49.30
2017-07-14T09:11:43.084Z,45.70
2017-07-14T09:14:11.398Z,47.50
2017-07-14T09:16:39.728Z,48.50
2017-07-14T09:19:08.035Z,47.10
2017-07-14T09:21:36.361Z,47.30
2017-07-14T09:24:04.660Z,47.80
2017-07-14T09:26:33.002Z,48.00
2017-07-14T09:29:01.302Z,47.30
2017-07-14T09:31:29.641Z,47.20
2017-07-14T09:33:57.950Z,47.10
2017-07-14T09:36:26.257Z,45.20
2017-07-14T09:38:55.501Z,45.20
2017-07-14T09:41:23.799Z,42.50
2017-07-14T09:43:52.129Z,42.80
2017-07-14T09:46:21.482Z,41.30
2017-07-14T09:48:49.814Z,44.40
2017-07-14T09:51:18.122Z,41.80
2017-07-14T09:53:46.445Z,44.20
2017-07-14T09:56:14.750Z,42.50
2017-07-14T09:58:43.076Z,42.00
2017-07-14T10:01:11.395Z,44.50
2017-07-14T10:03:40.638Z,42.00
2017-07-14T10:06:08.937Z,44.40
2017-07-14T10:08:37.287Z,43.70
2017-07-14T10:11:05.585Z,45.40
2017-07-14T10:13:33.885Z,45.00
2017-07-14T10:16:02.214Z,45.10
2017-07-14T10:18:30.513Z,44.30
2017-07-14T10:20:58.850Z,42.70
2017-07-14T10:23:27.174Z,43.50
2017-07-14T10:25:55.504Z,42.90
2017-07-14T10:28:23.810Z,42.60
2017-07-14T10:30:52.142Z,42.90
2017-07-14T10:33:20.449Z,43.50
2017-07-14T10:35:48.778Z,44.20
2017-07-14T10:38:17.078Z,44.00
2017-07-14T10:40:45.382Z,44.20
2017-07-14T10:43:13.731Z,44.10
2017-07-14T10:45:42.026Z,45.30
2017-07-14T10:48:10.354Z,45.20
2017-07-14T10:50:38.657Z,45.20
2017-07-14T10:53:06.981Z,44.90
2017-07-14T10:55:35.291Z,45.20
2017-07-14T10:58:03.621Z,46.60
2017-07-14T11:00:31.921Z,44.80
2017-07-14T11:03:00.261Z,45.30
2017-07-14T11:05:28.577Z,45.20
2017-07-14T11:07:57.758Z,43.70
2017-07-14T11:10:26.085Z,45.50
2017-07-14T11:12:54.393Z,45.50
2017-07-14T11:15:22.724Z,45.50
2017-07-14T11:17:51.025Z,46.90
2017-07-14T11:20:19.417Z,45.30
2017-07-14T11:22:47.716Z,45.40
2017-07-14T11:25:16.041Z,45.30
2017-07-14T11:27:44.372Z,45.90
2017-07-14T11:30:12.710Z,45.40
2017-07-14T11:32:41.016Z,46.40
2017-07-14T11:35:09.373Z,46.20
2017-07-14T11:37:37.678Z,46.80
2017-07-14T11:40:06.011Z,47.20
2017-07-14T11:42:34.319Z,49.10
2017-07-14T11:45:02.628Z,48.70
2017-07-14T11:47:30.957Z,49.40
2017-07-14T11:49:59.372Z,50.80
2017-07-14T11:52:27.707Z,52.50
2017-07-14T11:54:56.006Z,53.50
2017-07-14T11:57:24.343Z,53.90
2017-07-14T11:59:52.648Z,53.70
2017-07-14T12:02:20.970Z,50.80
2017-07-14T12:04:49.482Z,51.00
2017-07-14T12:07:17.817Z,50.90
2017-07-14T12:09:46.137Z,48.80
2017-07-14T12:12:14.436Z,48.00
2017-07-14T12:14:42.758Z,46.90
2017-07-14T12:17:11.057Z,48.60
2017-07-14T12:19:39.382Z,48.10
2017-07-14T12:22:07.685Z,48.70
2017-07-14T12:24:36.009Z,49.60
2017-07-14T12:27:04.317Z,48.10
2017-07-14T12:29:32.654Z,48.40
2017-07-14T12:32:00.965Z,48.90
2017-07-14T12:34:29.269Z,49.40
2017-07-14T12:36:57.595Z,50.00
2017-07-14T12:39:25.904Z,48.30
2017-07-14T12:41:54.238Z,49.00
2017-07-14T12:44:22.551Z,47.50
2017-07-14T12:46:50.880Z,48.10
2017-07-14T12:49:19.187Z,46.80
2017-07-14T12:51:47.544Z,46.80
2017-07-14T12:54:15.852Z,46.90
2017-07-14T12:56:44.162Z,48.00
2017-07-14T12:59:12.494Z,47.60
2017-07-14T13:01:40.807Z,46.40
2017-07-14T13:04:09.142Z,46.10
2017-07-14T13:06:37.505Z,47.60
2017-07-14T13:09:05.816Z,48.10
2017-07-14T13:11:34.127Z,48.90
2017-07-14T13:14:02.463Z,47.60
2017-07-14T13:16:30.773Z,47.00
2017-07-14T13:18:59.087Z,46.70
2017-07-14T13:21:27.421Z,45.80
2017-07-14T13:23:55.722Z,45.90
2017-07-14T13:26:24.051Z,46.40
2017-07-14T13:28:52.402Z,47.00
2017-07-14T13:31:20.738Z,45.80
2017-07-14T13:33:49.042Z,46.90
2017-07-14T13:36:17.600Z,46.90
2017-07-14T13:38:45.903Z,45.90
2017-07-14T13:41:14.218Z,44.80
2017-07-14T13:43:42.537Z,46.40
2017-07-14T13:46:10.841Z,46.40
2017-07-14T13:48:39.184Z,47.00
2017-07-14T13:51:07.526Z,46.70
2017-07-14T13:53:35.852Z,47.60
2017-07-14T13:56:04.149Z,47.00
2017-07-14T13:58:32.486Z,46.40
2017-07-14T14:01:00.785Z,44.60
2017-07-14T14:03:29.087Z,45.10
2017-07-14T14:05:57.412Z,45.10
2017-07-14T14:08:25.715Z,47.40
2017-07-14T14:10:54.053Z,45.90
2017-07-14T14:13:22.374Z,49.00
2017-07-14T14:15:50.701Z,45.70
2017-07-14T14:18:19.010Z,46.10
2017-07-14T14:20:47.309Z,44.50
2017-07-14T14:23:15.640Z,44.90
2017-07-14T14:25:43.947Z,44.90
2017-07-14T14:28:12.274Z,44.60
2017-07-14T14:30:40.578Z,45.50
2017-07-14T14:33:08.927Z,43.90
2017-07-14T14:35:37.227Z,44.70
2017-07-14T14:38:05.533Z,44.40
2017-07-14T14:40:33.861Z,44.10
2017-07-14T14:43:02.164Z,44.20
2017-07-14T14:45:30.487Z,46.40
2017-07-14T14:47:58.786Z,52.90
2017-07-14T14:50:27.140Z,56.50
2017-07-14T14:52:55.450Z,61.10
2017-07-14T14:55:25.392Z,61.40
2017-07-14T14:57:53.740Z,62.50
2017-07-14T15:00:22.057Z,63.30
2017-07-14T15:02:50.396Z,64.70
2017-07-14T15:05:18.706Z,65.20
2017-07-14T15:07:47.038Z,66.20
2017-07-14T15:10:15.340Z,62.10
2017-07-14T15:12:43.666Z,64.90
2017-07-14T15:15:11.987Z,62.70
2017-07-14T15:17:40.293Z,63.20
2017-07-14T15:20:08.635Z,62.40
2017-07-14T15:22:36.942Z,60.10
2017-07-14T15:25:05.275Z,61.10
2017-07-14T15:27:33.588Z,60.10
2017-07-14T15:30:01.921Z,60.10
2017-07-14T15:32:30.234Z,60.20
2017-07-14T15:34:58.582Z,60.30
2017-07-14T15:37:26.888Z,62.70
2017-07-14T15:39:55.219Z,61.80
2017-07-14T15:42:23.839Z,63.50
2017-07-14T15:44:52.177Z,61.50
2017-07-14T15:47:20.485Z,62.40
2017-07-14T15:49:48.794Z,63.10
2017-07-14T15:52:17.121Z,61.50
2017-07-14T15:54:45.441Z,58.90
2017-07-14T15:57:13.770Z,59.10
2017-07-14T15:59:42.074Z,56.30
2017-07-14T16:02:10.411Z,57.60
2017-07-14T16:04:38.719Z,57.50
2017-07-14T16:07:07.040Z,56.80
2017-07-14T16:09:35.355Z,54.90
2017-07-14T16:12:03.682Z,59.00
2017-07-14T16:14:31.982Z,57.50
2017-07-14T16:17:00.334Z,58.40
2017-07-14T16:19:28.638Z,56.00
2017-07-14T16:21:56.944Z,59.70
2017-07-14T16:24:25.276Z,60.60
2017-07-14T16:26:53.574Z,57.90
2017-07-14T16:29:21.903Z,59.30
2017-07-14T16:31:50.212Z,59.10
2017-07-14T16:34:18.529Z,60.70
2017-07-14T16:36:46.881Z,58.70
2017-07-14T16:39:15.212Z,60.30
2017-07-14T16:41:43.512Z,58.80
2017-07-14T16:44:11.849Z,58.90
2017-07-14T16:46:40.152Z,54.20
2017-07-14T16:49:08.483Z,55.50
2017-07-14T16:51:36.785Z,55.60
2017-07-14T16:54:05.090Z,56.90
2017-07-14T16:56:33.404Z,57.30
2017-07-14T16:59:01.724Z,58.30
2017-07-14T17:01:30.055Z,55.60
2017-07-14T17:03:58.367Z,57.10
2017-07-14T17:06:26.689Z,55.80
2017-07-14T17:08:55.097Z,53.60
2017-07-14T17:11:23.439Z,55.00
2017-07-14T17:13:51.741Z,55.40
2017-07-14T17:16:20.069Z,58.30
2017-07-14T17:18:48.381Z,53.60
2017-07-14T17:21:16.686Z,55.00
2017-07-14T17:23:45.192Z,56.40
2017-07-14T17:26:13.512Z,56.00
2017-07-14T17:28:41.851Z,56.70
2017-07-14T17:31:10.153Z,55.40
2017-07-14T17:33:38.471Z,55.60
2017-07-14T17:36:06.778Z,56.30
2017-07-14T17:38:35.110Z,56.50
2017-07-14T17:41:03.408Z,56.30
2017-07-14T17:43:31.731Z,57.40
2017-07-14T17:46:00.029Z,58.80
2017-07-14T17:48:28.360Z,58.60
2017-07-14T17:50:56.658Z,58.80
2017-07-14T17:53:24.985Z,59.80
2017-07-14T17:55:53.291Z,59.20
2017-07-14T17:58:21.627Z,59.10
2017-07-14T18:00:49.953Z,60.70
2017-07-14T18:03:18.262Z,61.50
2017-07-14T18:05:46.604Z,62.80
2017-07-14T18:08:14.902Z,62.90
2017-07-14T18:10:43.230Z,62.20
2017-07-14T18:13:11.542Z,63.50
2017-07-14T18:15:39.871Z,64.40
2017-07-14T18:18:08.176Z,65.30
2017-07-14T18:20:36.503Z,65.50
2017-07-14T18:23:04.802Z,65.40
2017-07-14T18:25:33.140Z,66.50
2017-07-14T18:28:01.436Z,67.80
2017-07-14T18:30:29.737Z,67.90
2017-07-14T18:32:58.063Z,68.20
2017-07-14T18:35:26.374Z,68.40
2017-07-14T18:37:54.703Z,67.30
2017-07-14T18:40:23.018Z,66.70
2017-07-14T18:42:51.361Z,66.50
2017-07-14T18:45:19.667Z,67.30
2017-07-14T18:47:48.006Z,68.00
2017-07-14T18:50:16.311Z,68.10
2017-07-14T18:52:45.554Z,68.70
2017-07-14T18:55:13.857Z,68.30
2017-07-14T18:57:42.209Z,68.50
2017-07-14T19:00:29.891Z,68.70
2017-07-14T19:02:58.226Z,68.70
2017-07-14T19:05:26.526Z,69.20
2017-07-14T19:07:54.857Z,69.40
2017-07-14T19:10:23.167Z,69.90
2017-07-14T19:12:51.468Z,70.00
2017-07-14T19:15:19.790Z,69.80
2017-07-14T19:17:48.086Z,69.70
2017-07-14T19:20:16.417Z,69.20
2017-07-14T19:22:44.747Z,69.50
2017-07-14T19:25:13.069Z,69.30
2017-07-14T19:27:41.397Z,69.30
2017-07-14T19:30:09.718Z,70.10
2017-07-14T19:32:38.031Z,63.90
2017-07-14T19:35:06.361Z,61.20
2017-07-14T19:37:34.662Z,61.50
2017-07-14T19:40:03.029Z,61.60
2017-07-14T19:42:31.333Z,62.00
2017-07-14T19:44:59.647Z,61.50
2017-07-14T19:47:28.002Z,62.50
2017-07-14T19:49:56.315Z,64.40
2017-07-14T19:52:24.644Z,66.70
2017-07-14T19:54:52.955Z,67.50
2017-07-14T19:57:21.301Z,68.60
2017-07-14T19:59:49.614Z,70.00
2017-07-14T20:02:17.990Z,71.80
2017-07-14T20:04:46.306Z,72.00
2017-07-14T20:07:14.638Z,72.90
2017-07-14T20:09:42.939Z,73.90
2017-07-14T20:12:11.269Z,73.80
2017-07-14T20:14:39.587Z,74.90
2017-07-14T20:17:07.994Z,74.90
2017-07-14T20:19:36.303Z,74.90
2017-07-14T20:22:04.619Z,75.00
2017-07-14T20:24:32.962Z,75.70
2017-07-14T20:27:01.278Z,75.60
2017-07-14T20:29:29.616Z,74.10
2017-07-14T20:31:58.199Z,76.10
2017-07-14T20:34:26.541Z,75.20
2017-07-14T20:36:54.849Z,76.50
2017-07-14T20:39:23.181Z,76.10
2017-07-14T20:41:51.506Z,75.90
2017-07-14T20:44:19.872Z,76.00
2017-07-14T20:46:48.182Z,76.00
2017-07-14T20:49:16.487Z,77.20
2017-07-14T20:51:44.810Z,76.30
2017-07-14T20:54:13.116Z,76.90
2017-07-14T20:56:41.465Z,75.80
2017-07-14T20:59:09.784Z,75.90
2017-07-14T21:01:38.187Z,76.70
2017-07-14T21:04:06.498Z,76.80
2017-07-14T21:06:34.828Z,77.20
2017-07-14T21:09:03.725Z,77.60
2017-07-14T21:11:32.059Z,78.40
2017-07-14T21:14:00.369Z,77.10
2017-07-14T21:16:28.708Z,77.80
2017-07-14T21:18:57.013Z,77.30
2017-07-14T21:21:26.235Z,77.40
2017-07-14T21:23:54.557Z,77.10
2017-07-14T21:26:22.867Z,77.80
2017-07-14T21:28:51.206Z,78.00
2017-07-14T21:31:19.512Z,77.10
2017-07-14T21:33:47.843Z,77.10
2017-07-14T21:36:16.143Z,77.10
2017-07-14T21:38:44.470Z,77.00
2017-07-14T21:41:12.794Z,78.60
2017-07-14T21:43:41.126Z,78.00
2017-07-14T21:46:09.450Z,78.30
2017-07-14T21:48:37.801Z,77.90
2017-07-14T21:51:06.114Z,77.10
2017-07-14T21:53:34.426Z,77.50
2017-07-14T21:56:02.757Z,78.10
2017-07-14T21:58:31.069Z,78.50
2017-07-14T22:00:59.398Z,78.30
2017-07-14T22:03:27.718Z,78.20
2017-07-14T22:05:56.065Z,79.20
2017-07-14T22:08:24.378Z,78.40
2017-07-14T22:10:52.719Z,78.10
2017-07-14T22:13:21.026Z,78.60
2017-07-14T22:15:49.365Z,79.30
2017-07-14T22:18:17.682Z,79.00
2017-07-14T22:20:46.025Z,78.60
2017-07-14T22:23:14.341Z,78.40
2017-07-14T22:25:42.670Z,78.50
2017-07-14T22:28:11.001Z,78.40
2017-07-14T22:30:39.318Z,78.00
2017-07-14T22:33:07.664Z,78.70
2017-07-14T22:35:35.994Z,77.50
2017-07-14T22:38:05.193Z,78.00
2017-07-14T22:40:33.520Z,78.50
2017-07-14T22:43:01.864Z,79.20
2017-07-14T22:45:30.185Z,79.00
2017-07-14T22:47:58.528Z,78.40
2017-07-14T22:50:26.853Z,78.90
2017-07-14T22:52:55.204Z,78.70
2017-07-14T22:55:23.530Z,78.90
2017-07-14T22:57:51.851Z,78.80
2017-07-14T23:00:20.202Z,78.50
2017-07-14T23:02:48.530Z,78.70
2017-07-14T23:05:16.871Z,79.10
2017-07-14T23:07:45.202Z,79.20
2017-07-14T23:10:13.563Z,79.40
2017-07-14T23:12:41.901Z,79.80
2017-07-14T23:15:10.258Z,80.30
2017-07-14T23:17:38.597Z,79.90
2017-07-14T23:20:06.942Z,79.70
2017-07-14T23:22:35.258Z,80.20
2017-07-14T23:25:03.610Z,79.70
2017-07-14T23:27:31.931Z,79.90
2017-07-14T23:30:00.240Z,79.60
2017-07-14T23:32:28.569Z,80.10
2017-07-14T23:34:56.906Z,80.70
2017-07-14T23:37:25.257Z,80.60
2017-07-14T23:39:53.570Z,80.10
2017-07-14T23:42:21.908Z,80.00
2017-07-14T23:44:54.757Z,80.50
2017-07-14T23:47:23.678Z,80.50
2017-07-14T23:49:52.010Z,80.70
2017-07-14T23:52:20.362Z,81.20
2017-07-14T23:54:48.706Z,80.70
2017-07-14T23:57:17.074Z,80.70
2017-07-14T23:59:45.398Z,80.50
